sensor_id;sensor_type;location;lat;lon;timestamp;pressure;altitude;pressure_sealevel;temperature;humidity
16355;BME280;8287;51.644;8.494;2023-04-23T00:01:46;99553.88;;;15.64;89.29
16355;BME280;8287;51.644;8.494;2023-04-23T00:04:14;99547.81;;;15.67;89.12
16355;BME280;8287;51.644;8.494;2023-04-23T00:06:43;99546.78;;;15.75;87.77
16355;BME280;8287;51.644;8.494;2023-04-23T00:09:14;99544.53;;;15.77;87.31
16355;BME280;8287;51.644;8.494;2023-04-23T00:11:41;99541.16;;;15.80;87.20
16355;BME280;8287;51.644;8.494;2023-04-23T00:14:09;99546.50;;;15.80;87.46
16355;BME280;8287;51.644;8.494;2023-04-23T00:16:37;99545.72;;;15.80;87.00
16355;BME280;8287;51.644;8.494;2023-04-23T00:19:04;99548.81;;;15.82;86.70
16355;BME280;8287;51.644;8.494;2023-04-23T00:21:30;99547.69;;;15.83;86.14
16355;BME280;8287;51.644;8.494;2023-04-23T00:23:57;99548.06;;;15.81;86.57
16355;BME280;8287;51.644;8.494;2023-04-23T00:26:24;99552.97;;;15.79;86.44
16355;BME280;8287;51.644;8.494;2023-04-23T00:28:50;99546.84;;;15.79;86.46
16355;BME280;8287;51.644;8.494;2023-04-23T00:31:18;99546.44;;;15.77;86.73
16355;BME280;8287;51.644;8.494;2023-04-23T00:33:46;99545.66;;;15.76;87.00
16355;BME280;8287;51.644;8.494;2023-04-23T00:36:13;99549.19;;;15.80;86.74
16355;BME280;8287;51.644;8.494;2023-04-23T00:38:40;99541.56;;;15.82;86.14
16355;BME280;8287;51.644;8.494;2023-04-23T00:41:06;99550.78;;;15.85;86.13
16355;BME280;8287;51.644;8.494;2023-04-23T00:43:34;99543.47;;;15.82;86.60
16355;BME280;8287;51.644;8.494;2023-04-23T00:46:00;99540.84;;;15.85;86.24
16355;BME280;8287;51.644;8.494;2023-04-23T00:48:28;99540.44;;;15.83;86.53
16355;BME280;8287;51.644;8.494;2023-04-23T00:50:59;99552.53;;;15.77;87.03
16355;BME280;8287;51.644;8.494;2023-04-23T00:53:28;99551.00;;;15.76;86.44
16355;BME280;8287;51.644;8.494;2023-04-23T00:55:55;99548.53;;;15.64;86.69
16355;BME280;8287;51.644;8.494;2023-04-23T00:58:22;99554.25;;;15.44;87.02
16355;BME280;8287;51.644;8.494;2023-04-23T01:00:49;99553.78;;;15.38;87.89
16355;BME280;8287;51.644;8.494;2023-04-23T01:03:17;99550.97;;;15.31;88.42
16355;BME280;8287;51.644;8.494;2023-04-23T01:05:47;99551.28;;;15.30;88.63
16355;BME280;8287;51.644;8.494;2023-04-23T01:08:15;99553.06;;;15.22;89.08
16355;BME280;8287;51.644;8.494;2023-04-23T01:10:43;99551.31;;;15.11;89.52
16355;BME280;8287;51.644;8.494;2023-04-23T01:13:10;99555.53;;;14.93;91.07
16355;BME280;8287;51.644;8.494;2023-04-23T01:15:37;99563.66;;;14.81;91.52
16355;BME280;8287;51.644;8.494;2023-04-23T01:18:04;99553.38;;;14.79;90.58
16355;BME280;8287;51.644;8.494;2023-04-23T01:20:32;99564.72;;;14.76;90.60
16355;BME280;8287;51.644;8.494;2023-04-23T01:23:00;99568.84;;;14.74;90.06
16355;BME280;8287;51.644;8.494;2023-04-23T01:25:27;99573.53;;;14.61;90.42
16355;BME280;8287;51.644;8.494;2023-04-23T01:27:54;99575.34;;;14.57;90.54
16355;BME280;8287;51.644;8.494;2023-04-23T01:30:21;99570.72;;;14.54;90.31
16355;BME280;8287;51.644;8.494;2023-04-23T01:32:49;99576.06;;;14.54;90.32
16355;BME280;8287;51.644;8.494;2023-04-23T01:35:16;99582.16;;;14.55;89.71
16355;BME280;8287;51.644;8.494;2023-04-23T01:37:43;99584.41;;;14.53;89.31
16355;BME280;8287;51.644;8.494;2023-04-23T01:40:11;99588.72;;;14.42;88.78
16355;BME280;8287;51.644;8.494;2023-04-23T01:42:38;99593.09;;;14.34;88.39
16355;BME280;8287;51.644;8.494;2023-04-23T01:45:06;99591.22;;;14.19;87.90
16355;BME280;8287;51.644;8.494;2023-04-23T01:47:33;99585.97;;;14.07;87.34
16355;BME280;8287;51.644;8.494;2023-04-23T01:50:00;99588.19;;;13.90;87.98
16355;BME280;8287;51.644;8.494;2023-04-23T01:52:29;99582.78;;;13.86;87.88
16355;BME280;8287;51.644;8.494;2023-04-23T01:54:56;99587.25;;;13.82;87.79
16355;BME280;8287;51.644;8.494;2023-04-23T01:57:24;99575.91;;;13.85;87.96
16355;BME280;8287;51.644;8.494;2023-04-23T01:59:51;99578.75;;;13.77;87.94
16355;BME280;8287;51.644;8.494;2023-04-23T02:02:17;99581.06;;;13.78;87.60
16355;BME280;8287;51.644;8.494;2023-04-23T02:04:46;99579.25;;;13.82;87.76
16355;BME280;8287;51.644;8.494;2023-04-23T02:07:13;99574.44;;;13.88;87.19
16355;BME280;8287;51.644;8.494;2023-04-23T02:09:40;99576.78;;;13.89;87.08
16355;BME280;8287;51.644;8.494;2023-04-23T02:12:06;99570.75;;;13.92;87.42
16355;BME280;8287;51.644;8.494;2023-04-23T02:14:34;99576.09;;;13.92;86.72
16355;BME280;8287;51.644;8.494;2023-04-23T02:17:01;99587.44;;;13.89;87.21
16355;BME280;8287;51.644;8.494;2023-04-23T02:19:28;99582.09;;;13.89;86.60
16355;BME280;8287;51.644;8.494;2023-04-23T02:21:56;99584.50;;;13.79;86.88
16355;BME280;8287;51.644;8.494;2023-04-23T02:24:22;99580.53;;;13.73;87.04
16355;BME280;8287;51.644;8.494;2023-04-23T02:26:49;99580.28;;;13.62;87.52
16355;BME280;8287;51.644;8.494;2023-04-23T02:29:15;99587.41;;;13.58;88.06
16355;BME280;8287;51.644;8.494;2023-04-23T02:31:43;99575.22;;;13.57;88.40
16355;BME280;8287;51.644;8.494;2023-04-23T02:34:09;99581.22;;;13.54;88.42
16355;BME280;8287;51.644;8.494;2023-04-23T02:36:36;99590.38;;;13.57;88.27
16355;BME280;8287;51.644;8.494;2023-04-23T02:39:03;99581.88;;;13.51;89.01
16355;BME280;8287;51.644;8.494;2023-04-23T02:41:30;99579.22;;;13.51;88.98
16355;BME280;8287;51.644;8.494;2023-04-23T02:43:57;99581.97;;;13.55;88.19
16355;BME280;8287;51.644;8.494;2023-04-23T02:46:24;99591.59;;;13.59;88.48
16355;BME280;8287;51.644;8.494;2023-04-23T02:48:52;99586.97;;;13.56;88.18
16355;BME280;8287;51.644;8.494;2023-04-23T02:51:18;99582.31;;;13.53;88.28
16355;BME280;8287;51.644;8.494;2023-04-23T02:53:45;99586.53;;;13.54;88.20
16355;BME280;8287;51.644;8.494;2023-04-23T02:56:11;99589.53;;;13.53;88.09
16355;BME280;8287;51.644;8.494;2023-04-23T02:58:38;99596.06;;;13.55;88.32
16355;BME280;8287;51.644;8.494;2023-04-23T03:01:05;99594.25;;;13.59;87.87
16355;BME280;8287;51.644;8.494;2023-04-23T03:03:32;99600.00;;;13.61;87.98
16355;BME280;8287;51.644;8.494;2023-04-23T03:06:01;99604.25;;;13.62;87.84
16355;BME280;8287;51.644;8.494;2023-04-23T03:08:28;99600.47;;;13.63;87.45
16355;BME280;8287;51.644;8.494;2023-04-23T03:10:54;99606.53;;;13.64;87.59
16355;BME280;8287;51.644;8.494;2023-04-23T03:13:21;99602.34;;;13.63;87.93
16355;BME280;8287;51.644;8.494;2023-04-23T03:15:49;99608.97;;;13.69;87.41
16355;BME280;8287;51.644;8.494;2023-04-23T03:18:16;99619.94;;;13.67;87.77
16355;BME280;8287;51.644;8.494;2023-04-23T03:20:42;99616.69;;;13.58;88.23
16355;BME280;8287;51.644;8.494;2023-04-23T03:23:10;99616.53;;;13.67;87.23
16355;BME280;8287;51.644;8.494;2023-04-23T03:25:37;99615.84;;;13.70;86.84
16355;BME280;8287;51.644;8.494;2023-04-23T03:28:04;99611.53;;;13.65;87.52
16355;BME280;8287;51.644;8.494;2023-04-23T03:30:30;99615.84;;;13.70;87.30
16355;BME280;8287;51.644;8.494;2023-04-23T03:32:58;99612.84;;;13.71;86.83
16355;BME280;8287;51.644;8.494;2023-04-23T03:35:25;99612.16;;;13.74;86.38
16355;BME280;8287;51.644;8.494;2023-04-23T03:37:51;99612.94;;;13.75;86.40
16355;BME280;8287;51.644;8.494;2023-04-23T03:40:20;99617.06;;;13.72;86.51
16355;BME280;8287;51.644;8.494;2023-04-23T03:42:47;99609.72;;;13.69;87.02
16355;BME280;8287;51.644;8.494;2023-04-23T03:45:13;99605.88;;;13.67;86.97
16355;BME280;8287;51.644;8.494;2023-04-23T03:47:40;99618.03;;;13.52;88.12
16355;BME280;8287;51.644;8.494;2023-04-23T03:50:08;99610.63;;;13.46;88.15
16355;BME280;8287;51.644;8.494;2023-04-23T03:52:35;99607.38;;;13.52;88.38
16355;BME280;8287;51.644;8.494;2023-04-23T03:55:01;99603.44;;;13.46;89.03
16355;BME280;8287;51.644;8.494;2023-04-23T03:57:29;99602.50;;;13.54;88.09
16355;BME280;8287;51.644;8.494;2023-04-23T03:59:56;99596.50;;;13.57;87.89
16355;BME280;8287;51.644;8.494;2023-04-23T04:02:23;99599.59;;;13.59;87.41
16355;BME280;8287;51.644;8.494;2023-04-23T04:04:49;99596.59;;;13.61;87.47
16355;BME280;8287;51.644;8.494;2023-04-23T04:07:16;99595.38;;;13.58;87.41
16355;BME280;8287;51.644;8.494;2023-04-23T04:09:43;99591.09;;;13.54;88.05
16355;BME280;8287;51.644;8.494;2023-04-23T04:12:11;99591.97;;;13.58;87.53
16355;BME280;8287;51.644;8.494;2023-04-23T04:14:39;99589.47;;;13.65;87.22
16355;BME280;8287;51.644;8.494;2023-04-23T04:17:05;99592.47;;;13.63;86.34
16355;BME280;8287;51.644;8.494;2023-04-23T04:19:32;99600.91;;;13.65;86.71
16355;BME280;8287;51.644;8.494;2023-04-23T04:21:59;99597.34;;;13.61;86.31
16355;BME280;8287;51.644;8.494;2023-04-23T04:24:27;99593.16;;;13.60;87.34
16355;BME280;8287;51.644;8.494;2023-04-23T04:26:57;99597.84;;;13.51;87.61
16355;BME280;8287;51.644;8.494;2023-04-23T04:29:24;99589.88;;;13.51;88.29
16355;BME280;8287;51.644;8.494;2023-04-23T04:31:52;99596.13;;;13.43;88.48
16355;BME280;8287;51.644;8.494;2023-04-23T04:34:19;99584.28;;;13.41;89.03
16355;BME280;8287;51.644;8.494;2023-04-23T04:36:46;99597.00;;;13.47;88.83
16355;BME280;8287;51.644;8.494;2023-04-23T04:39:13;99587.00;;;13.44;88.38
16355;BME280;8287;51.644;8.494;2023-04-23T04:41:39;99583.25;;;13.45;88.65
16355;BME280;8287;51.644;8.494;2023-04-23T04:44:07;99584.72;;;13.43;88.83
16355;BME280;8287;51.644;8.494;2023-04-23T04:46:33;99588.59;;;13.45;88.65
16355;BME280;8287;51.644;8.494;2023-04-23T04:49:06;99592.78;;;13.46;88.21
16355;BME280;8287;51.644;8.494;2023-04-23T04:51:32;99596.81;;;13.40;87.90
16355;BME280;8287;51.644;8.494;2023-04-23T04:53:59;99592.59;;;13.39;88.39
16355;BME280;8287;51.644;8.494;2023-04-23T04:56:26;99590.59;;;13.36;88.30
16355;BME280;8287;51.644;8.494;2023-04-23T04:58:52;99590.16;;;13.34;89.22
16355;BME280;8287;51.644;8.494;2023-04-23T05:01:20;99592.84;;;13.34;88.95
16355;BME280;8287;51.644;8.494;2023-04-23T05:03:47;99595.97;;;13.24;89.23
16355;BME280;8287;51.644;8.494;2023-04-23T05:06:15;99594.53;;;13.27;89.85
16355;BME280;8287;51.644;8.494;2023-04-23T05:08:42;99606.41;;;13.29;88.61
16355;BME280;8287;51.644;8.494;2023-04-23T05:11:12;99604.16;;;13.31;88.48
16355;BME280;8287;51.644;8.494;2023-04-23T05:13:39;99596.09;;;13.28;88.63
16355;BME280;8287;51.644;8.494;2023-04-23T05:16:05;99594.13;;;13.25;89.02
16355;BME280;8287;51.644;8.494;2023-04-23T05:18:32;99582.69;;;13.24;89.30
16355;BME280;8287;51.644;8.494;2023-04-23T05:20:59;99585.66;;;13.23;89.78
16355;BME280;8287;51.644;8.494;2023-04-23T05:23:27;99588.69;;;13.22;90.46
16355;BME280;8287;51.644;8.494;2023-04-23T05:25:54;99597.19;;;13.27;90.64
16355;BME280;8287;51.644;8.494;2023-04-23T05:28:22;99591.19;;;13.30;90.44
16355;BME280;8287;51.644;8.494;2023-04-23T05:30:49;99582.56;;;13.33;90.73
16355;BME280;8287;51.644;8.494;2023-04-23T05:33:16;99584.84;;;13.34;90.86
16355;BME280;8287;51.644;8.494;2023-04-23T05:35:43;99575.31;;;13.33;91.40
16355;BME280;8287;51.644;8.494;2023-04-23T05:38:09;99588.59;;;13.45;91.56
16355;BME280;8287;51.644;8.494;2023-04-23T05:40:37;99579.91;;;13.48;90.34
16355;BME280;8287;51.644;8.494;2023-04-23T05:43:04;99589.22;;;13.54;88.71
16355;BME280;8287;51.644;8.494;2023-04-23T05:45:31;99582.94;;;13.62;87.77
16355;BME280;8287;51.644;8.494;2023-04-23T05:47:58;99590.06;;;13.58;85.70
16355;BME280;8287;51.644;8.494;2023-04-23T05:50:25;99582.66;;;13.52;84.83
16355;BME280;8287;51.644;8.494;2023-04-23T05:52:51;99576.00;;;13.58;84.75
16355;BME280;8287;51.644;8.494;2023-04-23T05:55:18;99588.28;;;13.62;82.99
16355;BME280;8287;51.644;8.494;2023-04-23T05:57:46;99577.88;;;13.73;82.60
16355;BME280;8287;51.644;8.494;2023-04-23T06:00:13;99574.63;;;13.79;82.50
16355;BME280;8287;51.644;8.494;2023-04-23T06:02:41;99567.31;;;13.76;79.40
16355;BME280;8287;51.644;8.494;2023-04-23T06:05:08;99572.66;;;13.92;79.42
16355;BME280;8287;51.644;8.494;2023-04-23T06:07:35;99569.56;;;14.05;77.73
16355;BME280;8287;51.644;8.494;2023-04-23T06:10:02;99571.94;;;14.10;75.87
16355;BME280;8287;51.644;8.494;2023-04-23T06:12:29;99579.91;;;14.22;75.78
16355;BME280;8287;51.644;8.494;2023-04-23T06:14:57;99571.69;;;14.31;75.31
16355;BME280;8287;51.644;8.494;2023-04-23T06:17:24;99573.31;;;14.35;74.58
16355;BME280;8287;51.644;8.494;2023-04-23T06:19:50;99565.34;;;14.35;75.26
16355;BME280;8287;51.644;8.494;2023-04-23T06:22:17;99573.19;;;14.63;74.74
16355;BME280;8287;51.644;8.494;2023-04-23T06:24:43;99566.63;;;14.76;73.35
16355;BME280;8287;51.644;8.494;2023-04-23T06:27:10;99560.03;;;14.89;72.78
16355;BME280;8287;51.644;8.494;2023-04-23T06:29:37;99558.63;;;14.95;70.59
16355;BME280;8287;51.644;8.494;2023-04-23T06:32:04;99556.16;;;14.86;70.14
16355;BME280;8287;51.644;8.494;2023-04-23T06:34:31;99552.44;;;14.91;71.37
16355;BME280;8287;51.644;8.494;2023-04-23T06:36:58;99556.09;;;15.02;70.28
16355;BME280;8287;51.644;8.494;2023-04-23T06:39:24;99541.50;;;14.96;70.38
16355;BME280;8287;51.644;8.494;2023-04-23T06:41:51;99539.59;;;14.96;70.15
16355;BME280;8287;51.644;8.494;2023-04-23T06:44:17;99540.16;;;14.86;70.25
16355;BME280;8287;51.644;8.494;2023-04-23T06:46:44;99548.03;;;14.79;69.28
16355;BME280;8287;51.644;8.494;2023-04-23T06:49:12;99541.00;;;14.90;70.11
16355;BME280;8287;51.644;8.494;2023-04-23T06:51:38;99545.06;;;15.03;69.94
16355;BME280;8287;51.644;8.494;2023-04-23T06:54:05;99534.47;;;15.07;69.07
16355;BME280;8287;51.644;8.494;2023-04-23T06:56:31;99537.19;;;15.10;68.93
16355;BME280;8287;51.644;8.494;2023-04-23T06:58:58;99545.06;;;15.03;69.64
16355;BME280;8287;51.644;8.494;2023-04-23T07:01:25;99544.94;;;15.34;69.51
16355;BME280;8287;51.644;8.494;2023-04-23T07:03:51;99546.31;;;15.47;69.86
16355;BME280;8287;51.644;8.494;2023-04-23T07:06:20;99548.16;;;15.66;69.18
16355;BME280;8287;51.644;8.494;2023-04-23T07:08:46;99540.31;;;15.76;68.91
16355;BME280;8287;51.644;8.494;2023-04-23T07:11:13;99541.75;;;15.93;68.78
16355;BME280;8287;51.644;8.494;2023-04-23T07:13:40;99537.00;;;16.05;68.60
16355;BME280;8287;51.644;8.494;2023-04-23T07:16:07;99539.91;;;16.23;68.26
16355;BME280;8287;51.644;8.494;2023-04-23T07:18:33;99549.63;;;16.34;68.48
16355;BME280;8287;51.644;8.494;2023-04-23T07:21:00;99543.00;;;16.51;68.10
16355;BME280;8287;51.644;8.494;2023-04-23T07:23:28;99532.94;;;16.70;67.77
16355;BME280;8287;51.644;8.494;2023-04-23T07:25:54;99532.81;;;16.89;67.16
16355;BME280;8287;51.644;8.494;2023-04-23T07:28:21;99524.63;;;17.08;67.32
16355;BME280;8287;51.644;8.494;2023-04-23T07:30:48;99525.63;;;17.29;66.40
16355;BME280;8287;51.644;8.494;2023-04-23T07:33:14;99521.41;;;17.65;66.29
16355;BME280;8287;51.644;8.494;2023-04-23T07:35:41;99523.91;;;17.91;63.44
16355;BME280;8287;51.644;8.494;2023-04-23T07:38:08;99513.97;;;17.95;62.41
16355;BME280;8287;51.644;8.494;2023-04-23T07:40:37;99510.16;;;17.99;62.64
16355;BME280;8287;51.644;8.494;2023-04-23T07:43:03;99519.88;;;18.18;62.08
16355;BME280;8287;51.644;8.494;2023-04-23T07:45:30;99516.19;;;18.33;60.69
16355;BME280;8287;51.644;8.494;2023-04-23T07:47:56;99509.72;;;18.41;60.00
16355;BME280;8287;51.644;8.494;2023-04-23T07:50:23;99519.00;;;18.61;60.58
16355;BME280;8287;51.644;8.494;2023-04-23T07:52:50;99521.41;;;18.83;59.31
16355;BME280;8287;51.644;8.494;2023-04-23T07:55:17;99526.81;;;18.90;58.73
16355;BME280;8287;51.644;8.494;2023-04-23T07:57:46;99516.88;;;19.05;59.25
16355;BME280;8287;51.644;8.494;2023-04-23T08:00:13;99512.31;;;19.16;59.08
16355;BME280;8287;51.644;8.494;2023-04-23T08:02:39;99516.19;;;19.29;57.60
16355;BME280;8287;51.644;8.494;2023-04-23T08:05:06;99500.88;;;19.33;56.68
16355;BME280;8287;51.644;8.494;2023-04-23T08:07:33;99506.22;;;19.40;56.19
16355;BME280;8287;51.644;8.494;2023-04-23T08:10:00;99505.88;;;19.45;55.27
16355;BME280;8287;51.644;8.494;2023-04-23T08:12:30;99505.84;;;19.41;56.00
16355;BME280;8287;51.644;8.494;2023-04-23T08:14:59;99503.19;;;19.45;56.03
16355;BME280;8287;51.644;8.494;2023-04-23T08:17:26;99499.38;;;19.67;57.21
16355;BME280;8287;51.644;8.494;2023-04-23T08:19:52;99503.22;;;19.62;55.33
16355;BME280;8287;51.644;8.494;2023-04-23T08:22:19;99508.19;;;19.74;56.50
16355;BME280;8287;51.644;8.494;2023-04-23T08:24:46;99507.78;;;19.86;54.71
16355;BME280;8287;51.644;8.494;2023-04-23T08:27:12;99505.50;;;19.78;55.21
16355;BME280;8287;51.644;8.494;2023-04-23T08:29:39;99495.91;;;19.84;55.68
16355;BME280;8287;51.644;8.494;2023-04-23T08:32:07;99495.91;;;20.05;54.32
16355;BME280;8287;51.644;8.494;2023-04-23T08:34:33;99498.56;;;20.26;55.81
16355;BME280;8287;51.644;8.494;2023-04-23T08:37:00;99497.34;;;20.40;55.51
16355;BME280;8287;51.644;8.494;2023-04-23T08:39:26;99496.25;;;20.21;55.71
16355;BME280;8287;51.644;8.494;2023-04-23T08:41:54;99502.41;;;20.25;57.45
16355;BME280;8287;51.644;8.494;2023-04-23T08:44:23;99500.09;;;20.20;56.80
16355;BME280;8287;51.644;8.494;2023-04-23T08:46:52;99496.25;;;20.21;56.10
16355;BME280;8287;51.644;8.494;2023-04-23T08:49:21;99492.00;;;20.34;56.72
16355;BME280;8287;51.644;8.494;2023-04-23T08:51:49;99489.25;;;20.54;55.89
16355;BME280;8287;51.644;8.494;2023-04-23T08:54:21;99480.78;;;20.56;55.51
16355;BME280;8287;51.644;8.494;2023-04-23T08:56:50;99492.38;;;20.42;54.39
16355;BME280;8287;51.644;8.494;2023-04-23T08:59:17;99483.94;;;20.30;53.83
16355;BME280;8287;51.644;8.494;2023-04-23T09:01:45;99480.09;;;20.38;55.22
16355;BME280;8287;51.644;8.494;2023-04-23T09:04:12;99480.84;;;20.35;55.09
16355;BME280;8287;51.644;8.494;2023-04-23T09:06:42;99479.72;;;20.33;55.11
16355;BME280;8287;51.644;8.494;2023-04-23T09:09:09;99480.09;;;20.35;56.20
16355;BME280;8287;51.644;8.494;2023-04-23T09:11:37;99479.66;;;20.46;55.27
16355;BME280;8287;51.644;8.494;2023-04-23T09:14:04;99472.03;;;20.31;55.15
16355;BME280;8287;51.644;8.494;2023-04-23T09:16:30;99469.34;;;20.24;55.00
16355;BME280;8287;51.644;8.494;2023-04-23T09:18:57;99463.16;;;20.34;56.46
16355;BME280;8287;51.644;8.494;2023-04-23T09:21:24;99471.25;;;20.24;54.97
16355;BME280;8287;51.644;8.494;2023-04-23T09:23:52;99457.78;;;20.38;54.17
16355;BME280;8287;51.644;8.494;2023-04-23T09:26:20;99467.03;;;20.30;54.88
16355;BME280;8287;51.644;8.494;2023-04-23T09:28:48;99469.69;;;20.43;54.70
16355;BME280;8287;51.644;8.494;2023-04-23T09:31:19;99464.63;;;20.56;55.10
16355;BME280;8287;51.644;8.494;2023-04-23T09:33:50;99464.22;;;20.57;54.63
16355;BME280;8287;51.644;8.494;2023-04-23T09:36:19;99467.72;;;20.54;54.00
16355;BME280;8287;51.644;8.494;2023-04-23T09:38:47;99458.56;;;20.35;53.68
16355;BME280;8287;51.644;8.494;2023-04-23T09:41:22;99457.06;;;20.20;55.13
16355;BME280;8287;51.644;8.494;2023-04-23T09:43:49;99456.94;;;20.51;55.88
16355;BME280;8287;51.644;8.494;2023-04-23T09:46:17;99463.00;;;20.76;54.39
16355;BME280;8287;51.644;8.494;2023-04-23T09:48:44;99456.06;;;20.82;53.01
16355;BME280;8287;51.644;8.494;2023-04-23T09:51:12;99449.13;;;20.84;52.43
16355;BME280;8287;51.644;8.494;2023-04-23T09:53:40;99448.34;;;20.87;52.52
16355;BME280;8287;51.644;8.494;2023-04-23T09:56:07;99444.47;;;20.92;51.67
16355;BME280;8287;51.644;8.494;2023-04-23T09:58:36;99438.72;;;20.90;52.25
16355;BME280;8287;51.644;8.494;2023-04-23T10:01:07;99440.72;;;20.75;51.19
16355;BME280;8287;51.644;8.494;2023-04-23T10:03:34;99436.19;;;20.58;51.74
16355;BME280;8287;51.644;8.494;2023-04-23T10:06:00;99429.28;;;20.54;52.86
16355;BME280;8287;51.644;8.494;2023-04-23T10:08:27;99423.81;;;20.64;53.49
16355;BME280;8287;51.644;8.494;2023-04-23T10:10:54;99426.59;;;20.50;53.12
16355;BME280;8287;51.644;8.494;2023-04-23T10:13:21;99428.81;;;20.66;52.30
16355;BME280;8287;51.644;8.494;2023-04-23T10:15:49;99428.13;;;20.55;51.79
16355;BME280;8287;51.644;8.494;2023-04-23T10:18:18;99426.16;;;20.62;52.03
16355;BME280;8287;51.644;8.494;2023-04-23T10:20:46;99428.47;;;20.60;51.78
16355;BME280;8287;51.644;8.494;2023-04-23T10:23:15;99431.66;;;20.38;52.40
16355;BME280;8287;51.644;8.494;2023-04-23T10:25:42;99432.34;;;20.56;53.54
16355;BME280;8287;51.644;8.494;2023-04-23T10:28:10;99424.16;;;20.73;53.92
16355;BME280;8287;51.644;8.494;2023-04-23T10:30:37;99434.06;;;20.97;52.33
16355;BME280;8287;51.644;8.494;2023-04-23T10:33:06;99435.88;;;21.11;52.35
16355;BME280;8287;51.644;8.494;2023-04-23T10:35:33;99442.03;;;21.15;51.65
16355;BME280;8287;51.644;8.494;2023-04-23T10:38:00;99435.81;;;21.25;52.07
16355;BME280;8287;51.644;8.494;2023-04-23T10:40:29;99447.94;;;21.50;51.82
16355;BME280;8287;51.644;8.494;2023-04-23T10:42:58;99437.94;;;21.47;49.59
16355;BME280;8287;51.644;8.494;2023-04-23T10:45:29;99436.09;;;21.37;49.59
16355;BME280;8287;51.644;8.494;2023-04-23T10:47:57;99431.88;;;21.36;50.09
16355;BME280;8287;51.644;8.494;2023-04-23T10:50:27;99421.09;;;21.36;49.10
16355;BME280;8287;51.644;8.494;2023-04-23T10:52:54;99417.69;;;21.29;48.94
16355;BME280;8287;51.644;8.494;2023-04-23T10:55:22;99421.44;;;21.38;48.53
16355;BME280;8287;51.644;8.494;2023-04-23T10:57:59;99414.31;;;21.65;49.09
16355;BME280;8287;51.644;8.494;2023-04-23T11:00:26;99417.78;;;21.66;47.12
16355;BME280;8287;51.644;8.494;2023-04-23T11:02:54;99416.16;;;21.75;46.52
16355;BME280;8287;51.644;8.494;2023-04-23T11:05:22;99416.94;;;21.72;46.80
16355;BME280;8287;51.644;8.494;2023-04-23T11:08:05;99423.59;;;21.57;48.16
16355;BME280;8287;51.644;8.494;2023-04-23T11:10:32;99421.69;;;21.54;48.44
16355;BME280;8287;51.644;8.494;2023-04-23T11:13:21;99429.28;;;21.19;48.11
16355;BME280;8287;51.644;8.494;2023-04-23T11:15:48;99422.53;;;20.97;49.18
16355;BME280;8287;51.644;8.494;2023-04-23T11:18:14;99430.19;;;20.98;47.60
16355;BME280;8287;51.644;8.494;2023-04-23T11:20:41;99440.03;;;20.54;46.69
16355;BME280;8287;51.644;8.494;2023-04-23T11:23:28;99433.56;;;20.31;48.42
16355;BME280;8287;51.644;8.494;2023-04-23T11:25:56;99439.41;;;19.98;49.38
16355;BME280;8287;51.644;8.494;2023-04-23T11:28:25;99431.00;;;19.54;49.50
16355;BME280;8287;51.644;8.494;2023-04-23T11:30:52;99417.97;;;19.49;50.08
16355;BME280;8287;51.644;8.494;2023-04-23T11:33:20;99397.16;;;20.05;50.18
16355;BME280;8287;51.644;8.494;2023-04-23T11:35:47;99399.28;;;20.52;46.78
16355;BME280;8287;51.644;8.494;2023-04-23T11:38:14;99406.06;;;20.77;47.12
16355;BME280;8287;51.644;8.494;2023-04-23T11:40:45;99397.38;;;21.17;45.82
16355;BME280;8287;51.644;8.494;2023-04-23T11:43:17;99390.22;;;21.44;46.99
16355;BME280;8287;51.644;8.494;2023-04-23T11:45:45;99390.53;;;21.94;44.87
16355;BME280;8287;51.644;8.494;2023-04-23T11:48:12;99396.28;;;21.96;41.73
16355;BME280;8287;51.644;8.494;2023-04-23T11:50:40;99391.44;;;21.80;43.23
16355;BME280;8287;51.644;8.494;2023-04-23T11:53:08;99384.31;;;22.00;43.56
16355;BME280;8287;51.644;8.494;2023-04-23T11:55:37;99379.59;;;22.08;43.78
16355;BME280;8287;51.644;8.494;2023-04-23T11:58:08;99374.09;;;22.15;45.69
16355;BME280;8287;51.644;8.494;2023-04-23T12:00:35;99365.59;;;22.16;45.40
16355;BME280;8287;51.644;8.494;2023-04-23T12:03:03;99361.81;;;22.40;46.10
16355;BME280;8287;51.644;8.494;2023-04-23T12:05:30;99344.34;;;22.52;45.79
16355;BME280;8287;51.644;8.494;2023-04-23T12:08:05;99339.41;;;22.47;44.99
16355;BME280;8287;51.644;8.494;2023-04-23T12:10:42;99352.91;;;22.47;46.42
16355;BME280;8287;51.644;8.494;2023-04-23T12:13:13;99348.94;;;22.55;46.97
16355;BME280;8287;51.644;8.494;2023-04-23T12:15:44;99348.16;;;22.54;46.52
16355;BME280;8287;51.644;8.494;2023-04-23T12:18:11;99346.34;;;22.48;46.57
16355;BME280;8287;51.644;8.494;2023-04-23T12:20:37;99354.53;;;22.41;46.84
16355;BME280;8287;51.644;8.494;2023-04-23T12:23:05;99351.69;;;22.18;46.80
16355;BME280;8287;51.644;8.494;2023-04-23T12:25:32;99353.72;;;22.10;47.45
16355;BME280;8287;51.644;8.494;2023-04-23T12:28:02;99357.41;;;21.93;48.57
16355;BME280;8287;51.644;8.494;2023-04-23T12:30:29;99361.13;;;21.69;48.15
16355;BME280;8287;51.644;8.494;2023-04-23T12:32:58;99354.13;;;21.31;49.50
16355;BME280;8287;51.644;8.494;2023-04-23T12:35:36;99345.59;;;20.92;50.14
16355;BME280;8287;51.644;8.494;2023-04-23T12:38:03;99340.63;;;20.87;49.36
16355;BME280;8287;51.644;8.494;2023-04-23T12:40:30;99343.59;;;21.03;48.25
16355;BME280;8287;51.644;8.494;2023-04-23T12:42:57;99331.97;;;21.13;46.90
16355;BME280;8287;51.644;8.494;2023-04-23T12:45:25;99332.72;;;21.17;44.06
16355;BME280;8287;51.644;8.494;2023-04-23T12:47:52;99334.97;;;21.22;44.18
16355;BME280;8287;51.644;8.494;2023-04-23T12:50:19;99322.59;;;21.28;44.80
16355;BME280;8287;51.644;8.494;2023-04-23T12:52:45;99323.22;;;21.43;45.10
16355;BME280;8287;51.644;8.494;2023-04-23T12:55:12;99321.97;;;21.51;44.91
16355;BME280;8287;51.644;8.494;2023-04-23T12:57:38;99315.59;;;21.75;45.39
16355;BME280;8287;51.644;8.494;2023-04-23T13:00:06;99309.91;;;21.66;44.17
16355;BME280;8287;51.644;8.494;2023-04-23T13:02:34;99314.72;;;21.85;44.14
16355;BME280;8287;51.644;8.494;2023-04-23T13:05:01;99310.69;;;22.00;44.65
16355;BME280;8287;51.644;8.494;2023-04-23T13:07:27;99309.47;;;22.34;44.86
16355;BME280;8287;51.644;8.494;2023-04-23T13:09:54;99296.09;;;22.24;47.16
16355;BME280;8287;51.644;8.494;2023-04-23T13:12:21;99288.38;;;22.79;46.37